createdAt,value
2017-04-16T00:00:22.041Z,68.68
2017-04-16T00:00:48.177Z,68.68
2017-04-16T00:01:14.288Z,68.77
2017-04-16T00:01:40.479Z,68.49
2017-04-16T00:02:06.586Z,68.65
2017-04-16T00:02:32.710Z,68.49
2017-04-16T00:02:58.837Z,68.74
2017-04-16T00:03:25.011Z,68.55
2017-04-16T00:03:51.117Z,68.68
2017-04-16T00:04:17.371Z,68.87
2017-04-16T00:04:43.498Z,69.02
2017-04-16T00:05:09.601Z,68.77
2017-04-16T00:05:35.822Z,68.74
2017-04-16T00:06:01.957Z,68.87
2017-04-16T00:06:28.102Z,68.68
2017-04-16T00:06:54.236Z,68.87
2017-04-16T00:07:20.340Z,68.96
2017-04-16T00:07:46.444Z,68.87
2017-04-16T00:08:12.526Z,69.06
2017-04-16T00:08:38.653Z,69.35
2017-04-16T00:09:04.760Z,69.15
2017-04-16T00:09:30.887Z,69.06
2017-04-16T00:09:57.014Z,68.96
2017-04-16T00:10:23.116Z,69.15
2017-04-16T00:10:49.246Z,69.44
2017-04-16T00:11:15.326Z,69.54
2017-04-16T00:11:41.432Z,69.35
2017-04-16T00:12:07.556Z,69.31
2017-04-16T00:12:33.661Z,69.21
2017-04-16T00:12:59.791Z,69.21
2017-04-16T00:13:25.949Z,69.15
2017-04-16T00:13:52.054Z,69.88
2017-04-16T00:14:18.181Z,69.5
2017-04-16T00:14:44.285Z,69.41
2017-04-16T00:15:10.373Z,69.35
2017-04-16T00:15:36.449Z,69.54
2017-04-16T00:16:02.532Z,69.5
2017-04-16T00:16:28.612Z,69.6
2017-04-16T00:16:54.717Z,69.79
2017-04-16T00:17:20.823Z,69.63
2017-04-16T00:17:46.905Z,69.79
2017-04-16T00:18:13.054Z,69.5
2017-04-16T00:18:39.174Z,69.5
2017-04-16T00:19:05.301Z,69.44
2017-04-16T00:19:31.639Z,69.69
2017-04-16T00:19:57.720Z,69.82
2017-04-16T00:20:23.818Z,69.92
2017-04-16T00:20:49.906Z,69.82
2017-04-16T00:21:15.984Z,69.73
2017-04-16T00:21:42.217Z,69.63
2017-04-16T00:22:08.297Z,69.5
2017-04-16T00:22:34.378Z,69.88
2017-04-16T00:23:00.568Z,69.69
2017-04-16T00:23:26.672Z,69.92
2017-04-16T00:23:52.755Z,69.35
2017-04-16T00:24:18.838Z,69.63
2017-04-16T00:24:44.945Z,69.5
2017-04-16T00:25:11.059Z,69.6
2017-04-16T00:25:37.184Z,69.6
2017-04-16T00:26:03.270Z,70.07
2017-04-16T00:26:29.397Z,70.3
2017-04-16T00:26:55.481Z,70.3
2017-04-16T00:27:21.559Z,70.39
2017-04-16T00:27:47.662Z,69.63
2017-04-16T00:28:13.791Z,69.73
2017-04-16T00:28:39.913Z,69.63
2017-04-16T00:29:06.073Z,69.92
2017-04-16T00:29:32.170Z,69.88
2017-04-16T00:29:58.293Z,69.6
2017-04-16T00:30:24.398Z,69.63
2017-04-16T00:30:50.504Z,70.01
2017-04-16T00:31:16.585Z,69.63
2017-04-16T00:31:42.664Z,69.63
2017-04-16T00:32:08.773Z,69.5
2017-04-16T00:32:34.877Z,69.35
2017-04-16T00:33:00.984Z,69.82
2017-04-16T00:33:27.065Z,69.79
2017-04-16T00:33:53.215Z,69.35
2017-04-16T00:34:19.365Z,69.82
2017-04-16T00:34:45.470Z,69.35
2017-04-16T00:35:11.603Z,69.73
2017-04-16T00:35:37.782Z,69.92
2017-04-16T00:36:03.865Z,69.63
2017-04-16T00:36:29.947Z,69.54
2017-04-16T00:36:56.027Z,69.54
2017-04-16T00:37:22.209Z,69.73
2017-04-16T00:37:48.312Z,69.63
2017-04-16T00:38:14.463Z,69.82
2017-04-16T00:38:40.589Z,69.92
2017-04-16T00:39:06.668Z,69.54
2017-04-16T00:39:32.775Z,69.73
2017-04-16T00:39:58.904Z,70.39
2017-04-16T00:40:25.058Z,69.73
2017-04-16T00:40:51.164Z,69.54
2017-04-16T00:41:17.268Z,69.73
2017-04-16T00:41:43.372Z,69.54
2017-04-16T00:42:09.520Z,69.92
2017-04-16T00:42:35.600Z,70.3
2017-04-16T00:43:01.731Z,70.49
2017-04-16T00:43:27.858Z,70.1
2017-04-16T00:43:53.985Z,69.54
2017-04-16T00:44:20.090Z,69.73
2017-04-16T00:44:46.261Z,69.92
2017-04-16T00:45:12.342Z,70.2
2017-04-16T00:45:38.480Z,70.1
2017-04-16T00:46:04.560Z,70.39
2017-04-16T00:46:30.644Z,70.3
2017-04-16T00:46:56.748Z,70.3
2017-04-16T00:47:22.851Z,70.58
2017-04-16T00:47:48.977Z,70.58
2017-04-16T00:48:15.130Z,70.49
2017-04-16T00:48:41.298Z,70.68
2017-04-16T00:49:07.385Z,70.54
2017-04-16T00:49:33.506Z,70.39
2017-04-16T00:49:59.598Z,70.3
2017-04-16T00:50:25.692Z,70.87
2017-04-16T00:50:51.775Z,70.77
2017-04-16T00:51:17.855Z,70.3
2017-04-16T00:51:43.961Z,70.3
2017-04-16T00:52:10.088Z,70.77
2017-04-16T00:52:36.171Z,70.68
2017-04-16T00:53:02.433Z,70.77
2017-04-16T00:53:28.561Z,70.77
2017-04-16T00:53:54.709Z,70.58
2017-04-16T00:54:20.837Z,70.49
2017-04-16T00:54:46.942Z,70.3
2017-04-16T00:55:13.072Z,70.2
2017-04-16T00:55:39.152Z,70.3
2017-04-16T00:56:05.235Z,70.77
2017-04-16T00:56:31.349Z,70.3
2017-04-16T00:56:57.441Z,70.87
2017-04-16T00:57:23.522Z,70.77
2017-04-16T00:57:49.677Z,70.68
2017-04-16T00:58:15.814Z,70.39
2017-04-16T00:58:41.889Z,70.68
2017-04-16T00:59:07.998Z,70.64
2017-04-16T00:59:34.212Z,70.68
2017-04-16T01:00:00.255Z,70.97
2017-04-16T01:00:26.392Z,70.87
2017-04-16T01:00:52.475Z,71.15
2017-04-16T01:01:18.580Z,70.68
2017-04-16T01:01:44.670Z,70.87
2017-04-16T01:02:10.750Z,71.15
2017-04-16T01:02:36.833Z,70.1
2017-04-16T01:03:02.941Z,70.3
2017-04-16T01:03:29.104Z,70.87
2017-04-16T01:03:55.233Z,71.15
2017-04-16T01:04:21.468Z,70.68
2017-04-16T01:04:47.546Z,71.15
2017-04-16T01:05:13.704Z,71.15
2017-04-16T01:05:39.786Z,71.06
2017-04-16T01:06:05.889Z,71.34
2017-04-16T01:06:31.972Z,71.06
2017-04-16T01:06:58.133Z,71.25
2017-04-16T01:07:24.262Z,70.77
2017-04-16T01:07:50.364Z,71.15
2017-04-16T01:08:16.492Z,70.77
2017-04-16T01:08:42.626Z,71.06
2017-04-16T01:09:08.857Z,71.06
2017-04-16T01:09:34.963Z,71.15
2017-04-16T01:10:01.251Z,71.06
2017-04-16T01:10:27.354Z,70.77
2017-04-16T01:10:53.434Z,71.25
2017-04-16T01:11:19.536Z,71.25
2017-04-16T01:11:45.620Z,71.06
2017-04-16T01:12:11.722Z,70.87
2017-04-16T01:12:37.849Z,70.87
2017-04-16T01:13:03.955Z,71.31
2017-04-16T01:13:30.061Z,71.15
2017-04-16T01:13:56.165Z,71.25
2017-04-16T01:14:22.289Z,71.44
2017-04-16T01:14:48.441Z,71.34
2017-04-16T01:15:14.542Z,70.87
2017-04-16T01:15:40.646Z,71.15
2017-04-16T01:16:06.745Z,71.22
2017-04-16T01:16:32.827Z,71.15
2017-04-16T01:16:58.923Z,71.25
2017-04-16T01:17:24.985Z,71.25
2017-04-16T01:17:51.094Z,71.44
2017-04-16T01:18:17.200Z,71.69
2017-04-16T01:18:43.320Z,71.59
2017-04-16T01:19:09.449Z,71.72
2017-04-16T01:19:35.531Z,71.69
2017-04-16T01:20:01.633Z,71.69
2017-04-16T01:20:27.737Z,72.07
2017-04-16T01:20:53.823Z,71.97
2017-04-16T01:21:19.906Z,72.16
2017-04-16T01:21:45.994Z,71.88
2017-04-16T01:22:12.118Z,71.91
2017-04-16T01:22:38.198Z,72.11
2017-04-16T01:23:04.303Z,71.88
2017-04-16T01:23:30.466Z,71.97
2017-04-16T01:23:56.548Z,71.41
2017-04-16T01:24:22.653Z,72.07
2017-04-16T01:24:48.760Z,72.07
2017-04-16T01:25:14.887Z,72.07
2017-04-16T01:25:40.990Z,72.16
2017-04-16T01:26:07.072Z,71.31
2017-04-16T01:26:33.177Z,71.88
2017-04-16T01:26:59.256Z,71.5
2017-04-16T01:27:25.367Z,71.69
2017-04-16T01:27:51.496Z,71.88
2017-04-16T01:28:17.627Z,71.69
2017-04-16T01:28:43.780Z,71.97
2017-04-16T01:29:09.884Z,72.16
2017-04-16T01:29:35.967Z,72.11
2017-04-16T01:30:02.071Z,72.26
2017-04-16T01:30:28.152Z,71.97
2017-04-16T01:30:54.233Z,71.22
2017-04-16T01:31:20.316Z,71.88
2017-04-16T01:31:46.424Z,72.16
2017-04-16T01:32:12.536Z,71.88
2017-04-16T01:32:38.626Z,71.69
2017-04-16T01:33:04.708Z,72.35
2017-04-16T01:33:30.812Z,71.88
2017-04-16T01:33:56.925Z,71.78
2017-04-16T01:34:23.117Z,71.69
2017-04-16T01:34:49.326Z,71.88
2017-04-16T01:35:15.431Z,72.16
2017-04-16T01:35:41.547Z,72.26
2017-04-16T01:36:07.634Z,72.07
2017-04-16T01:36:33.765Z,71.88
2017-04-16T01:36:59.872Z,71.78
2017-04-16T01:37:25.953Z,71.88
2017-04-16T01:37:52.082Z,72.45
2017-04-16T01:38:18.325Z,72.26
2017-04-16T01:38:44.449Z,72.35
2017-04-16T01:39:10.555Z,72.35
2017-04-16T01:39:36.689Z,72.55
2017-04-16T01:40:02.812Z,72.74
2017-04-16T01:40:28.955Z,73.11
2017-04-16T01:40:55.056Z,72.92
2017-04-16T01:41:21.137Z,72.92
2017-04-16T01:41:47.228Z,72.83
2017-04-16T01:42:13.333Z,72.16
2017-04-16T01:42:39.483Z,72.26
2017-04-16T01:43:05.607Z,72.45
2017-04-16T01:43:31.711Z,72.74
2017-04-16T01:43:57.817Z,72.35
2017-04-16T01:44:23.920Z,72.26
2017-04-16T01:44:50.078Z,72.26
2017-04-16T01:45:16.201Z,72.45
2017-04-16T01:45:42.285Z,73.02
2017-04-16T01:46:08.400Z,72.83
2017-04-16T01:46:34.516Z,72.92
2017-04-16T01:47:00.618Z,73.11
2017-04-16T01:47:26.701Z,72.92
2017-04-16T01:47:52.861Z,73.11
2017-04-16T01:48:19.027Z,73.11
2017-04-16T01:48:45.158Z,72.64
2017-04-16T01:49:11.288Z,72.55
2017-04-16T01:49:37.391Z,72.92
2017-04-16T01:50:03.498Z,72.92
2017-04-16T01:50:29.621Z,72.74
2017-04-16T01:50:55.705Z,73.02
2017-04-16T01:51:21.820Z,72.64
2017-04-16T01:51:47.900Z,72.83
2017-04-16T01:52:14.004Z,72.74
2017-04-16T01:52:40.137Z,73.11
2017-04-16T01:53:06.218Z,73.02
2017-04-16T01:53:32.310Z,72.55
2017-04-16T01:53:58.466Z,72.64
2017-04-16T01:54:24.593Z,72.92
2017-04-16T01:54:50.697Z,72.92
2017-04-16T01:55:16.803Z,73.02
2017-04-16T01:55:42.908Z,72.92
2017-04-16T01:56:09.000Z,72.83
2017-04-16T01:56:35.091Z,72.74
2017-04-16T01:57:01.245Z,72.74
2017-04-16T01:57:27.365Z,72.92
2017-04-16T01:57:53.534Z,72.92
2017-04-16T01:58:19.645Z,72.92
2017-04-16T01:58:45.793Z,72.74
2017-04-16T01:59:11.879Z,73.3
2017-04-16T01:59:38.002Z,72.74
2017-04-16T02:00:04.096Z,72.83
2017-04-16T02:00:30.202Z,72.92
2017-04-16T02:00:56.333Z,73.4
2017-04-16T02:01:22.416Z,72.92
2017-04-16T02:01:48.529Z,73.21
2017-04-16T02:02:14.707Z,72.92
2017-04-16T02:02:40.780Z,73.11
2017-04-16T02:03:06.899Z,73.3
2017-04-16T02:03:33.014Z,72.92
2017-04-16T02:03:59.122Z,73.59
2017-04-16T02:04:25.260Z,73.11
2017-04-16T02:04:51.420Z,73.49
2017-04-16T02:05:17.506Z,73.78
2017-04-16T02:05:43.641Z,73.59
2017-04-16T02:06:09.715Z,73.59
2017-04-16T02:06:35.804Z,73.59
2017-04-16T02:07:01.925Z,73.49
2017-04-16T02:07:28.008Z,73.69
2017-04-16T02:07:54.197Z,73.97
2017-04-16T02:08:20.298Z,73.88
2017-04-16T02:08:46.450Z,73.88
2017-04-16T02:09:12.602Z,73.97
2017-04-16T02:09:38.727Z,73.88
2017-04-16T02:10:04.809Z,74.07
2017-04-16T02:10:30.924Z,74.54
2017-04-16T02:10:57.052Z,74.35
2017-04-16T02:11:23.138Z,74.16
2017-04-16T02:11:49.317Z,74.16
2017-04-16T02:12:15.467Z,74.35
2017-04-16T02:12:41.548Z,73.78
2017-04-16T02:13:07.776Z,74.26
2017-04-16T02:13:33.943Z,74.54
2017-04-16T02:14:00.094Z,74.35
2017-04-16T02:14:26.219Z,74.54
2017-04-16T02:14:52.300Z,74.41
2017-04-16T02:15:18.482Z,74.98
2017-04-16T02:15:44.619Z,74.92
2017-04-16T02:16:10.722Z,74.92
2017-04-16T02:16:36.853Z,75.02
2017-04-16T02:17:02.973Z,74.73
2017-04-16T02:17:29.047Z,74.73
2017-04-16T02:17:55.151Z,74.63
2017-04-16T02:18:21.231Z,74.92
2017-04-16T02:18:47.371Z,74.35
2017-04-16T02:19:13.501Z,74.35
2017-04-16T02:19:39.581Z,74.44
2017-04-16T02:20:05.686Z,74.54
2017-04-16T02:20:31.790Z,74.07
2017-04-16T02:20:57.923Z,74.44
2017-04-16T02:21:24.005Z,75.02
2017-04-16T02:21:50.110Z,74.63
2017-04-16T02:22:16.223Z,75.02
2017-04-16T02:22:42.304Z,74.26
2017-04-16T02:23:08.442Z,74.44
2017-04-16T02:23:34.543Z,74.44
2017-04-16T02:24:00.649Z,74.44
2017-04-16T02:24:26.824Z,74.44
2017-04-16T02:24:52.930Z,74.26
2017-04-16T02:25:19.045Z,74.16
2017-04-16T02:25:45.123Z,73.97
2017-04-16T02:26:11.205Z,74.35
2017-04-16T02:26:37.313Z,74.35
2017-04-16T02:27:03.397Z,74.16
2017-04-16T02:27:29.477Z,74.16
2017-04-16T02:27:55.605Z,74.26
2017-04-16T02:28:21.685Z,74.54
2017-04-16T02:28:47.793Z,74.44
2017-04-16T02:29:13.884Z,74.44
2017-04-16T02:29:40.089Z,74.54
2017-04-16T02:30:06.202Z,74.44
2017-04-16T02:30:32.299Z,74.26
2017-04-16T02:30:58.385Z,74.35
2017-04-16T02:31:24.513Z,73.88
2017-04-16T02:31:50.602Z,74.16
2017-04-16T02:32:16.736Z,73.88
2017-04-16T02:32:42.868Z,74.54
2017-04-16T02:33:08.975Z,74.73
2017-04-16T02:33:35.078Z,74.35
2017-04-16T02:34:01.250Z,74.44
2017-04-16T02:34:27.356Z,74.54
2017-04-16T02:34:53.459Z,74.35
2017-04-16T02:35:19.555Z,74.44
2017-04-16T02:35:45.680Z,73.88
2017-04-16T02:36:11.808Z,74.41
2017-04-16T02:36:37.917Z,74.22
2017-04-16T02:37:04.003Z,74.98
2017-04-16T02:37:30.094Z,74.69
2017-04-16T02:37:56.221Z,74.54
2017-04-16T02:38:22.327Z,74.44
2017-04-16T02:38:48.471Z,74.35
2017-04-16T02:39:14.603Z,74.26
2017-04-16T02:39:40.686Z,74.35
2017-04-16T02:40:06.789Z,74.92
2017-04-16T02:40:32.915Z,74.63
2017-04-16T02:40:59.103Z,74.63
2017-04-16T02:41:25.325Z,74.92
2017-04-16T02:41:51.415Z,75.02
2017-04-16T02:42:17.501Z,74.92
2017-04-16T02:42:43.628Z,74.82
2017-04-16T02:43:09.757Z,74.69
2017-04-16T02:43:35.871Z,74.6
2017-04-16T02:44:01.979Z,74.69
2017-04-16T02:44:28.113Z,74.88
2017-04-16T02:44:54.215Z,74.69
2017-04-16T02:45:20.307Z,74.73
2017-04-16T02:45:46.405Z,74.98
2017-04-16T02:46:12.486Z,74.98
2017-04-16T02:46:38.596Z,75.07
2017-04-16T02:47:04.701Z,74.69
2017-04-16T02:47:30.796Z,74.88
2017-04-16T02:47:56.945Z,74.79
2017-04-16T02:48:23.095Z,74.88
2017-04-16T02:48:49.266Z,74.79
2017-04-16T02:49:15.450Z,74.63
2017-04-16T02:49:41.554Z,75.07
2017-04-16T02:50:07.668Z,75.07
2017-04-16T02:50:33.745Z,74.98
2017-04-16T02:50:59.850Z,74.92
2017-04-16T02:51:25.948Z,74.73
2017-04-16T02:51:52.071Z,74.79
2017-04-16T02:52:18.176Z,75.02
2017-04-16T02:52:44.283Z,74.82
2017-04-16T02:53:10.477Z,74.51
2017-04-16T02:53:36.605Z,74.98
2017-04-16T02:54:02.726Z,74.88
2017-04-16T02:54:28.929Z,75.02
2017-04-16T02:54:55.031Z,74.98
2017-04-16T02:55:21.114Z,75.07
2017-04-16T02:55:47.199Z,75.74
2017-04-16T02:56:13.301Z,75.49
2017-04-16T02:56:39.450Z,75.64
2017-04-16T02:57:05.544Z,75.45
2017-04-16T02:57:31.650Z,75.55
2017-04-16T02:57:57.734Z,75.36
2017-04-16T02:58:23.924Z,75.49
2017-04-16T02:58:50.021Z,75.84
2017-04-16T02:59:16.116Z,75.45
2017-04-16T02:59:42.253Z,75.55
2017-04-16T03:00:08.353Z,76.12
2017-04-16T03:00:34.533Z,76.12
2017-04-16T03:01:00.615Z,75.93
2017-04-16T03:01:26.719Z,76.03
2017-04-16T03:01:52.821Z,75.93
2017-04-16T03:02:18.990Z,76.21
2017-04-16T03:02:45.090Z,75.45
2017-04-16T03:03:11.176Z,76.03
2017-04-16T03:03:37.278Z,75.93
2017-04-16T03:04:03.386Z,75.84
2017-04-16T03:04:29.487Z,75.93
2017-04-16T03:04:55.676Z,76.21
2017-04-16T03:05:21.697Z,76.31
2017-04-16T03:05:47.808Z,76.21
2017-04-16T03:06:13.926Z,76.12
2017-04-16T03:06:40.005Z,76.4
2017-04-16T03:07:06.089Z,76.03
2017-04-16T03:07:32.212Z,76.31
2017-04-16T03:07:58.340Z,76.21
2017-04-16T03:08:24.465Z,76.12
2017-04-16T03:08:50.558Z,76.03
2017-04-16T03:09:16.678Z,75.93
2017-04-16T03:09:42.783Z,75.93
2017-04-16T03:10:08.869Z,76.21
2017-04-16T03:10:34.970Z,75.93
2017-04-16T03:11:01.052Z,75.84
2017-04-16T03:11:27.157Z,76.59
2017-04-16T03:11:53.234Z,76.59
2017-04-16T03:12:19.359Z,76.97
2017-04-16T03:12:45.466Z,77.17
2017-04-16T03:13:11.550Z,77.17
2017-04-16T03:13:37.681Z,77.17
2017-04-16T03:14:03.811Z,77.07
2017-04-16T03:14:29.936Z,77.17
2017-04-16T03:14:56.021Z,77.07
2017-04-16T03:15:22.153Z,77.07
2017-04-16T03:15:48.302Z,76.97
2017-04-16T03:16:14.410Z,77.55
2017-04-16T03:16:40.494Z,77.07
2017-04-16T03:17:06.576Z,77.36
2017-04-16T03:17:32.664Z,77.45
2017-04-16T03:17:58.800Z,77.45
2017-04-16T03:18:25.007Z,77.55
2017-04-16T03:18:51.189Z,77.36
2017-04-16T03:19:17.312Z,77.17
2017-04-16T03:19:43.391Z,77.17
2017-04-16T03:20:09.498Z,77.07
2017-04-16T03:20:35.751Z,77.07
2017-04-16T03:21:01.833Z,77.07
2017-04-16T03:21:27.937Z,77.07
2017-04-16T03:21:54.041Z,77.45
2017-04-16T03:22:20.143Z,77.64
2017-04-16T03:22:46.216Z,77.45
2017-04-16T03:23:12.344Z,77.45
2017-04-16T03:23:38.473Z,77.36
2017-04-16T03:24:04.625Z,77.36
2017-04-16T03:24:30.729Z,77.26
2017-04-16T03:24:56.833Z,77.55
2017-04-16T03:25:22.916Z,77.45
2017-04-16T03:25:49.020Z,77.26
2017-04-16T03:26:15.131Z,77.73
2017-04-16T03:26:41.215Z,77.73
2017-04-16T03:27:07.319Z,77.45
2017-04-16T03:27:33.424Z,77.26
2017-04-16T03:27:59.503Z,77.55
2017-04-16T03:28:25.631Z,77.64
2017-04-16T03:28:51.783Z,78.02
2017-04-16T03:29:17.885Z,77.83
2017-04-16T03:29:44.011Z,77.92
2017-04-16T03:30:10.092Z,77.92
2017-04-16T03:30:36.172Z,77.73
2017-04-16T03:31:02.276Z,78.21
2017-04-16T03:31:28.358Z,78.21
2017-04-16T03:31:54.463Z,78.11
2017-04-16T03:32:20.569Z,78.3
2017-04-16T03:32:46.699Z,78.3
2017-04-16T03:33:12.851Z,78.5
2017-04-16T03:33:38.976Z,78.4
2017-04-16T03:34:05.126Z,78.59
2017-04-16T03:34:31.233Z,78.3
2017-04-16T03:34:57.314Z,78.3
2017-04-16T03:35:23.399Z,78.4
2017-04-16T03:35:49.504Z,78.3
2017-04-16T03:36:15.587Z,78.4
2017-04-16T03:36:41.667Z,78.5
2017-04-16T03:37:07.748Z,78.3
2017-04-16T03:37:33.855Z,78.69
2017-04-16T03:37:59.936Z,78.69
2017-04-16T03:38:26.045Z,78.69
2017-04-16T03:38:52.170Z,78.5
2017-04-16T03:39:18.251Z,78.5
2017-04-16T03:39:44.356Z,78.59
2017-04-16T03:40:10.461Z,79.06
2017-04-16T03:40:36.563Z,78.88
2017-04-16T03:41:02.645Z,78.69
2017-04-16T03:41:28.724Z,78.97
2017-04-16T03:41:54.829Z,78.78
2017-04-16T03:42:20.955Z,78.69
2017-04-16T03:42:47.082Z,78.78
2017-04-16T03:43:13.163Z,78.88
2017-04-16T03:43:39.274Z,78.88
2017-04-16T03:44:05.396Z,78.88
2017-04-16T03:44:31.548Z,79.25
2017-04-16T03:44:57.676Z,78.88
2017-04-16T03:45:23.778Z,79.25
2017-04-16T03:45:49.886Z,78.3
2017-04-16T03:46:16.015Z,78.5
2017-04-16T03:46:42.096Z,78.69
2017-04-16T03:47:08.176Z,78.4
2017-04-16T03:47:34.257Z,78.4
2017-04-16T03:48:00.362Z,78.5
2017-04-16T03:48:26.444Z,79.06
2017-04-16T03:48:52.573Z,78.4
2017-04-16T03:49:18.678Z,78.4
2017-04-16T03:49:44.760Z,78.59
2017-04-16T03:50:10.865Z,78.4
2017-04-16T03:50:36.946Z,78.5
2017-04-16T03:51:03.071Z,78.4
2017-04-16T03:51:29.175Z,78.97
2017-04-16T03:51:55.257Z,79.25
2017-04-16T03:52:21.359Z,79.16
2017-04-16T03:52:47.505Z,78.97
2017-04-16T03:53:13.646Z,79.06
2017-04-16T03:53:39.749Z,78.97
2017-04-16T03:54:05.880Z,78.97
2017-04-16T03:54:31.982Z,78.88
2017-04-16T03:54:58.087Z,78.78
2017-04-16T03:55:24.189Z,78.5
2017-04-16T03:55:50.269Z,78.5
2017-04-16T03:56:16.372Z,78.5
2017-04-16T03:56:42.456Z,78.59
2017-04-16T03:57:08.532Z,78.59
2017-04-16T03:57:34.638Z,78.59
2017-04-16T03:58:00.733Z,78.5
2017-04-16T03:58:26.838Z,78.78
2017-04-16T03:58:52.964Z,78.59
2017-04-16T03:59:19.114Z,78.59
2017-04-16T03:59:45.216Z,78.4
2017-04-16T04:00:11.296Z,78.5
2017-04-16T04:00:37.426Z,78.4
2017-04-16T04:01:03.509Z,78.59
2017-04-16T04:01:29.763Z,78.3
2017-04-16T04:01:55.844Z,78.97
2017-04-16T04:02:21.926Z,78.97
2017-04-16T04:02:48.030Z,78.97
2017-04-16T04:03:14.111Z,79.25
2017-04-16T04:03:40.261Z,78.88
2017-04-16T04:04:06.385Z,78.59
2017-04-16T04:04:32.470Z,78.97
2017-04-16T04:04:58.573Z,78.88
2017-04-16T04:05:24.651Z,78.97
2017-04-16T04:05:50.729Z,78.59
2017-04-16T04:06:16.807Z,78.78
2017-04-16T04:06:42.885Z,78.88
2017-04-16T04:07:08.989Z,79.16
2017-04-16T04:07:35.096Z,78.97
2017-04-16T04:08:01.223Z,79.06
2017-04-16T04:08:27.330Z,78.3
2017-04-16T04:08:53.505Z,78.3
2017-04-16T04:09:19.653Z,79.06
2017-04-16T04:09:45.735Z,78.97
2017-04-16T04:10:11.864Z,78.97
2017-04-16T04:10:37.946Z,78.69
2017-04-16T04:11:04.049Z,78.97
2017-04-16T04:11:30.254Z,78.88
2017-04-16T04:11:56.361Z,78.97
2017-04-16T04:12:22.463Z,78.97
2017-04-16T04:12:48.593Z,78.88
2017-04-16T04:13:14.699Z,78.88
2017-04-16T04:13:40.849Z,78.5
2017-04-16T04:14:06.975Z,78.3
2017-04-16T04:14:33.188Z,78.5
2017-04-16T04:14:59.294Z,78.4
2017-04-16T04:15:25.398Z,78.4
2017-04-16T04:15:51.688Z,78.4
2017-04-16T04:16:17.790Z,78.69
2017-04-16T04:16:43.917Z,78.59
2017-04-16T04:17:10.045Z,78.69
2017-04-16T04:17:36.147Z,78.97
2017-04-16T04:18:02.252Z,78.5
2017-04-16T04:18:28.355Z,78.5
2017-04-16T04:18:54.484Z,78.5
2017-04-16T04:19:20.610Z,78.59
2017-04-16T04:19:46.763Z,78.3
2017-04-16T04:20:13.046Z,78.5
2017-04-16T04:20:39.127Z,78.59
2017-04-16T04:21:05.209Z,78.11
2017-04-16T04:21:31.287Z,78.5
2017-04-16T04:21:57.392Z,78.4
2017-04-16T04:22:23.472Z,78.78
2017-04-16T04:22:49.597Z,78.59
2017-04-16T04:23:15.733Z,78.21
2017-04-16T04:23:41.804Z,78.21
2017-04-16T04:24:07.887Z,78.21
2017-04-16T04:24:33.990Z,78.3
2017-04-16T04:25:00.072Z,78.69
2017-04-16T04:25:26.174Z,78.4
2017-04-16T04:25:52.315Z,78.69
2017-04-16T04:26:18.394Z,78.4
2017-04-16T04:26:44.474Z,78.78
2017-04-16T04:27:10.556Z,78.4
2017-04-16T04:27:36.662Z,78.59
2017-04-16T04:28:02.815Z,78.59
2017-04-16T04:28:28.920Z,78.59
2017-04-16T04:28:55.027Z,78.5
2017-04-16T04:29:21.179Z,78.4
2017-04-16T04:29:47.308Z,78.59
2017-04-16T04:30:13.389Z,78.3
2017-04-16T04:30:39.513Z,78.97
2017-04-16T04:31:05.595Z,78.88
2017-04-16T04:31:31.672Z,78.78
2017-04-16T04:31:57.755Z,78.97
2017-04-16T04:32:23.831Z,78.4
2017-04-16T04:32:49.934Z,78.59
2017-04-16T04:33:16.016Z,78.5
2017-04-16T04:33:42.142Z,78.78
2017-04-16T04:34:08.364Z,78.5
2017-04-16T04:34:34.468Z,78.69
2017-04-16T04:35:00.619Z,78.59
2017-04-16T04:35:26.725Z,78.4
2017-04-16T04:35:52.831Z,78.21
2017-04-16T04:36:18.956Z,78.3
2017-04-16T04:36:45.109Z,78.4
2017-04-16T04:37:11.298Z,78.21
2017-04-16T04:37:37.379Z,78.02
2017-04-16T04:38:03.549Z,78.11
2017-04-16T04:38:29.629Z,77.92
2017-04-16T04:38:55.731Z,78.3
2017-04-16T04:39:21.836Z,77.92
2017-04-16T04:39:47.917Z,78.21
2017-04-16T04:40:14.047Z,78.02
2017-04-16T04:40:40.130Z,77.73
2017-04-16T04:41:06.213Z,77.92
2017-04-16T04:41:32.299Z,78.11
2017-04-16T04:41:58.421Z,78.02
2017-04-16T04:42:24.503Z,78.11
2017-04-16T04:42:50.585Z,78.11
2017-04-16T04:43:16.720Z,78.21
2017-04-16T04:43:42.802Z,78.21
2017-04-16T04:44:08.906Z,78.21
2017-04-16T04:44:35.012Z,78.69
2017-04-16T04:45:01.092Z,78.4
2017-04-16T04:45:27.198Z,78.5
2017-04-16T04:45:53.298Z,78.59
2017-04-16T04:46:19.378Z,77.92
2017-04-16T04:46:45.483Z,78.02
2017-04-16T04:47:11.563Z,77.92
2017-04-16T04:47:37.666Z,78.21
2017-04-16T04:48:03.791Z,78.11
2017-04-16T04:48:29.931Z,78.11
2017-04-16T04:48:56.060Z,77.73
2017-04-16T04:49:22.163Z,78.02
2017-04-16T04:49:48.261Z,78.11
2017-04-16T04:50:14.341Z,77.92
2017-04-16T04:50:40.444Z,77.83
2017-04-16T04:51:06.525Z,77.92
2017-04-16T04:51:32.602Z,78.21
2017-04-16T04:51:58.722Z,78.21
2017-04-16T04:52:24.826Z,78.21
2017-04-16T04:52:50.929Z,78.21
2017-04-16T04:53:17.033Z,78.02
2017-04-16T04:53:43.135Z,78.21
2017-04-16T04:54:09.242Z,78.4
2017-04-16T04:54:35.321Z,78.5
2017-04-16T04:55:01.402Z,78.59
2017-04-16T04:55:27.506Z,78.59
2017-04-16T04:55:53.589Z,78.59
2017-04-16T04:56:19.691Z,78.11
2017-04-16T04:56:45.852Z,77.92
2017-04-16T04:57:11.931Z,78.11
2017-04-16T04:57:38.016Z,77.73
2017-04-16T04:58:04.137Z,77.73
2017-04-16T04:58:30.242Z,78.21
2017-04-16T04:58:56.326Z,77.73
2017-04-16T04:59:22.424Z,78.02
2017-04-16T04:59:48.529Z,77.92
2017-04-16T05:00:14.608Z,77.45
2017-04-16T05:00:40.690Z,77.49
2017-04-16T05:01:06.985Z,77.3
2017-04-16T05:01:33.113Z,77.26
2017-04-16T05:01:59.194Z,77.45
2017-04-16T05:02:25.365Z,77.45
2017-04-16T05:02:51.518Z,77.55
2017-04-16T05:03:17.631Z,77.39
2017-04-16T05:03:43.754Z,77.45
2017-04-16T05:04:09.860Z,77.49
2017-04-16T05:04:36.010Z,77.49
2017-04-16T05:05:02.140Z,77.45
2017-04-16T05:05:28.248Z,77.68
2017-04-16T05:05:54.353Z,77.17
2017-04-16T05:06:20.433Z,77.2
2017-04-16T05:06:46.537Z,77.36
2017-04-16T05:07:12.642Z,77.36
2017-04-16T05:07:38.743Z,77.3
2017-04-16T05:08:04.953Z,77.39
2017-04-16T05:08:31.103Z,77.58
2017-04-16T05:08:57.232Z,77.49
2017-04-16T05:09:23.380Z,77.49
2017-04-16T05:09:49.485Z,77.68
2017-04-16T05:10:15.565Z,77.3
2017-04-16T05:10:41.645Z,77.49
2017-04-16T05:11:07.841Z,77.39
2017-04-16T05:11:33.922Z,77.2
2017-04-16T05:12:00.030Z,77.11
2017-04-16T05:12:26.179Z,77.39
2017-04-16T05:12:52.310Z,77.2
2017-04-16T05:13:18.418Z,77.2
2017-04-16T05:13:44.570Z,77.49
2017-04-16T05:14:10.674Z,77.3
2017-04-16T05:14:36.776Z,77.39
2017-04-16T05:15:02.862Z,77.49
2017-04-16T05:15:28.986Z,77.3
2017-04-16T05:15:55.070Z,77.49
2017-04-16T05:16:21.192Z,77.11
2017-04-16T05:16:47.268Z,77.49
2017-04-16T05:17:13.374Z,77.01
2017-04-16T05:17:39.500Z,77.11
2017-04-16T05:18:05.670Z,77.11
2017-04-16T05:18:31.753Z,77.01
2017-04-16T05:18:57.879Z,77.01
2017-04-16T05:19:24.007Z,76.92
2017-04-16T05:19:50.087Z,77.01
2017-04-16T05:20:16.193Z,76.54
2017-04-16T05:20:42.272Z,76.54
2017-04-16T05:21:08.353Z,76.35
2017-04-16T05:21:34.526Z,76.63
2017-04-16T05:22:00.607Z,76.82
2017-04-16T05:22:26.692Z,76.44
2017-04-16T05:22:52.772Z,77.01
2017-04-16T05:23:18.900Z,77.01
2017-04-16T05:23:44.981Z,77.01
2017-04-16T05:24:11.083Z,76.82
2017-04-16T05:24:37.342Z,76.54
2017-04-16T05:25:03.466Z,76.44
2017-04-16T05:25:29.546Z,76.25
2017-04-16T05:25:55.654Z,75.96
2017-04-16T05:26:21.734Z,75.96
2017-04-16T05:26:47.835Z,76.54
2017-04-16T05:27:13.964Z,76.82
2017-04-16T05:27:40.046Z,76.82
2017-04-16T05:28:06.169Z,76.54
2017-04-16T05:28:32.277Z,76.82
2017-04-16T05:28:58.431Z,76.82
2017-04-16T05:29:24.556Z,76.82
2017-04-16T05:29:50.662Z,76.82
2017-04-16T05:30:16.743Z,76.92
2017-04-16T05:30:42.824Z,76.73
2017-04-16T05:31:08.901Z,76.73
2017-04-16T05:31:35.054Z,76.54
2017-04-16T05:32:01.134Z,76.35
2017-04-16T05:32:27.240Z,76.73
2017-04-16T05:32:53.392Z,76.73
2017-04-16T05:33:19.519Z,76.63
2017-04-16T05:33:45.626Z,76.35
2017-04-16T05:34:11.706Z,76.06
2017-04-16T05:34:37.833Z,76.63
2017-04-16T05:35:04.106Z,76.16
2017-04-16T05:35:30.208Z,76.16
2017-04-16T05:35:56.494Z,75.87
2017-04-16T05:36:22.576Z,75.87
2017-04-16T05:36:48.660Z,76.06
2017-04-16T05:37:14.765Z,76.16
2017-04-16T05:37:40.869Z,76.16
2017-04-16T05:38:06.974Z,76.06